sensor_id;sensor_type;location;lat;lon;timestamp;P1;durP1;ratioP1;P2;durP2;ratioP2
23617;SDS011;18207;32.078;34.818;2023-01-29T00:01:28;3.50;;;3.20;;
23617;SDS011;18207;32.078;34.818;2023-01-29T00:03:58;3.25;;;2.95;;
23617;SDS011;18207;32.078;34.818;2023-01-29T00:06:28;3.80;;;3.42;;
23617;SDS011;18207;32.078;34.818;2023-01-29T00:09:01;3.72;;;3.38;;
23617;SDS011;18207;32.078;34.818;2023-01-29T00:11:32;3.47;;;3.17;;
23617;SDS011;18207;32.078;34.818;2023-01-29T00:14:03;4.05;;;3.42;;
23617;SDS011;18207;32.078;34.818;2023-01-29T00:16:34;3.38;;;3.10;;
23617;SDS011;18207;32.078;34.818;2023-01-29T00:19:04;4.22;;;3.40;;
23617;SDS011;18207;32.078;34.818;2023-01-29T00:21:35;3.65;;;3.25;;
23617;SDS011;18207;32.078;34.818;2023-01-29T00:24:07;3.97;;;3.30;;
23617;SDS011;18207;32.078;34.818;2023-01-29T00:26:37;3.78;;;3.35;;
23617;SDS011;18207;32.078;34.818;2023-01-29T00:29:09;3.83;;;3.53;;
23617;SDS011;18207;32.078;34.818;2023-01-29T00:31:39;3.50;;;3.20;;
23617;SDS011;18207;32.078;34.818;2023-01-29T00:34:13;4.80;;;3.75;;
23617;SDS011;18207;32.078;34.818;2023-01-29T00:36:43;4.13;;;3.78;;
23617;SDS011;18207;32.078;34.818;2023-01-29T00:39:15;4.65;;;3.78;;
23617;SDS011;18207;32.078;34.818;2023-01-29T00:42:01;3.95;;;3.55;;
23617;SDS011;18207;32.078;34.818;2023-01-29T00:44:48;3.70;;;3.40;;
23617;SDS011;18207;32.078;34.818;2023-01-29T00:47:28;3.90;;;3.60;;
23617;SDS011;18207;32.078;34.818;2023-01-29T00:49:59;4.75;;;3.88;;
23617;SDS011;18207;32.078;34.818;2023-01-29T00:52:31;4.05;;;3.70;;
23617;SDS011;18207;32.078;34.818;2023-01-29T00:55:04;4.10;;;3.70;;
23617;SDS011;18207;32.078;34.818;2023-01-29T00:57:37;3.78;;;3.47;;
23617;SDS011;18207;32.078;34.818;2023-01-29T01:00:09;4.38;;;3.97;;
23617;SDS011;18207;32.078;34.818;2023-01-29T01:02:43;4.13;;;3.72;;
23617;SDS011;18207;32.078;34.818;2023-01-29T01:05:30;4.10;;;3.72;;
23617;SDS011;18207;32.078;34.818;2023-01-29T01:08:01;4.00;;;3.60;;
23617;SDS011;18207;32.078;34.818;2023-01-29T01:10:59;4.50;;;3.65;;
23617;SDS011;18207;32.078;34.818;2023-01-29T01:13:30;5.00;;;3.63;;
23617;SDS011;18207;32.078;34.818;2023-01-29T01:16:07;4.78;;;3.72;;
23617;SDS011;18207;32.078;34.818;2023-01-29T01:18:38;3.75;;;3.45;;
23617;SDS011;18207;32.078;34.818;2023-01-29T01:21:09;4.78;;;3.80;;
23617;SDS011;18207;32.078;34.818;2023-01-29T01:23:39;3.88;;;3.58;;
23617;SDS011;18207;32.078;34.818;2023-01-29T01:26:11;4.65;;;3.92;;
23617;SDS011;18207;32.078;34.818;2023-01-29T01:28:41;4.63;;;3.55;;
23617;SDS011;18207;32.078;34.818;2023-01-29T01:31:11;3.83;;;3.40;;
23617;SDS011;18207;32.078;34.818;2023-01-29T01:33:44;6.07;;;3.92;;
23617;SDS011;18207;32.078;34.818;2023-01-29T01:36:14;5.03;;;3.53;;
23617;SDS011;18207;32.078;34.818;2023-01-29T01:38:44;6.00;;;3.45;;
23617;SDS011;18207;32.078;34.818;2023-01-29T01:41:16;3.95;;;3.50;;
23617;SDS011;18207;32.078;34.818;2023-01-29T01:43:49;4.72;;;3.45;;
23617;SDS011;18207;32.078;34.818;2023-01-29T01:46:23;3.88;;;3.50;;
23617;SDS011;18207;32.078;34.818;2023-01-29T01:48:58;4.00;;;3.60;;
23617;SDS011;18207;32.078;34.818;2023-01-29T01:51:34;4.25;;;3.67;;
23617;SDS011;18207;32.078;34.818;2023-01-29T01:54:10;5.10;;;3.60;;
23617;SDS011;18207;32.078;34.818;2023-01-29T01:56:50;3.92;;;3.28;;
23617;SDS011;18207;32.078;34.818;2023-01-29T01:59:30;4.22;;;3.63;;
23617;SDS011;18207;32.078;34.818;2023-01-29T02:02:03;4.38;;;3.45;;
23617;SDS011;18207;32.078;34.818;2023-01-29T02:04:52;5.65;;;3.55;;
23617;SDS011;18207;32.078;34.818;2023-01-29T02:07:39;4.78;;;3.40;;
23617;SDS011;18207;32.078;34.818;2023-01-29T02:10:34;6.22;;;3.17;;
23617;SDS011;18207;32.078;34.818;2023-01-29T02:13:12;4.75;;;3.67;;
23617;SDS011;18207;32.078;34.818;2023-01-29T02:15:44;4.38;;;3.38;;
23617;SDS011;18207;32.078;34.818;2023-01-29T02:18:15;8.68;;;4.03;;
23617;SDS011;18207;32.078;34.818;2023-01-29T02:20:52;6.22;;;3.70;;
23617;SDS011;18207;32.078;34.818;2023-01-29T02:23:59;5.72;;;3.67;;
23617;SDS011;18207;32.078;34.818;2023-01-29T02:27:04;3.47;;;3.17;;
23617;SDS011;18207;32.078;34.818;2023-01-29T02:29:46;7.10;;;3.67;;
23617;SDS011;18207;32.078;34.818;2023-01-29T02:32:31;4.88;;;3.58;;
23617;SDS011;18207;32.078;34.818;2023-01-29T02:35:23;5.78;;;3.90;;
23617;SDS011;18207;32.078;34.818;2023-01-29T02:38:06;4.75;;;4.13;;
23617;SDS011;18207;32.078;34.818;2023-01-29T02:40:50;5.07;;;3.88;;
23617;SDS011;18207;32.078;34.818;2023-01-29T02:43:27;7.10;;;4.00;;
23617;SDS011;18207;32.078;34.818;2023-01-29T02:46:10;3.80;;;3.45;;
23617;SDS011;18207;32.078;34.818;2023-01-29T02:48:53;4.35;;;3.80;;
23617;SDS011;18207;32.078;34.818;2023-01-29T02:51:34;4.50;;;3.47;;
23617;SDS011;18207;32.078;34.818;2023-01-29T02:54:13;6.07;;;3.78;;
23617;SDS011;18207;32.078;34.818;2023-01-29T02:56:53;5.30;;;4.25;;
23617;SDS011;18207;32.078;34.818;2023-01-29T02:59:30;5.57;;;3.88;;
23617;SDS011;18207;32.078;34.818;2023-01-29T03:02:09;6.15;;;3.78;;
23617;SDS011;18207;32.078;34.818;2023-01-29T03:04:50;5.25;;;3.97;;
23617;SDS011;18207;32.078;34.818;2023-01-29T03:07:32;5.18;;;4.13;;
23617;SDS011;18207;32.078;34.818;2023-01-29T03:10:12;6.18;;;4.07;;
23617;SDS011;18207;32.078;34.818;2023-01-29T03:12:50;5.10;;;3.85;;
23617;SDS011;18207;32.078;34.818;2023-01-29T03:15:27;6.43;;;4.10;;
23617;SDS011;18207;32.078;34.818;2023-01-29T03:18:10;4.90;;;3.92;;
23617;SDS011;18207;32.078;34.818;2023-01-29T03:20:48;5.68;;;4.22;;
23617;SDS011;18207;32.078;34.818;2023-01-29T03:23:25;5.95;;;4.47;;
23617;SDS011;18207;32.078;34.818;2023-01-29T03:26:16;6.15;;;4.43;;
23617;SDS011;18207;32.078;34.818;2023-01-29T03:29:06;6.78;;;4.35;;
23617;SDS011;18207;32.078;34.818;2023-01-29T03:31:56;5.05;;;4.35;;
23617;SDS011;18207;32.078;34.818;2023-01-29T03:34:36;4.93;;;4.45;;
23617;SDS011;18207;32.078;34.818;2023-01-29T03:37:12;6.82;;;4.22;;
23617;SDS011;18207;32.078;34.818;2023-01-29T03:39:50;6.22;;;4.55;;
23617;SDS011;18207;32.078;34.818;2023-01-29T03:42:22;5.68;;;4.47;;
23617;SDS011;18207;32.078;34.818;2023-01-29T03:44:59;5.95;;;4.47;;
23617;SDS011;18207;32.078;34.818;2023-01-29T03:47:42;8.60;;;4.70;;
23617;SDS011;18207;32.078;34.818;2023-01-29T03:50:23;4.80;;;4.13;;
23617;SDS011;18207;32.078;34.818;2023-01-29T03:53:06;4.82;;;4.25;;
23617;SDS011;18207;32.078;34.818;2023-01-29T03:55:48;8.82;;;4.30;;
23617;SDS011;18207;32.078;34.818;2023-01-29T03:58:29;5.97;;;4.20;;
23617;SDS011;18207;32.078;34.818;2023-01-29T04:01:11;5.13;;;4.20;;
23617;SDS011;18207;32.078;34.818;2023-01-29T04:03:49;5.93;;;3.97;;
23617;SDS011;18207;32.078;34.818;2023-01-29T04:06:32;4.78;;;4.30;;
23617;SDS011;18207;32.078;34.818;2023-01-29T04:09:09;6.70;;;4.05;;
23617;SDS011;18207;32.078;34.818;2023-01-29T04:11:49;6.05;;;4.28;;
23617;SDS011;18207;32.078;34.818;2023-01-29T04:14:28;4.63;;;4.22;;
23617;SDS011;18207;32.078;34.818;2023-01-29T04:17:02;5.20;;;4.45;;
23617;SDS011;18207;32.078;34.818;2023-01-29T04:19:40;7.28;;;4.15;;
23617;SDS011;18207;32.078;34.818;2023-01-29T04:22:14;5.63;;;4.57;;
23617;SDS011;18207;32.078;34.818;2023-01-29T04:24:50;5.50;;;4.45;;
23617;SDS011;18207;32.078;34.818;2023-01-29T04:27:22;6.18;;;4.72;;
23617;SDS011;18207;32.078;34.818;2023-01-29T04:30:06;5.28;;;4.70;;
23617;SDS011;18207;32.078;34.818;2023-01-29T04:32:56;5.82;;;4.18;;
23617;SDS011;18207;32.078;34.818;2023-01-29T04:35:50;4.40;;;4.03;;
23617;SDS011;18207;32.078;34.818;2023-01-29T04:38:45;5.70;;;4.03;;
23617;SDS011;18207;32.078;34.818;2023-01-29T04:41:28;5.20;;;4.40;;
23617;SDS011;18207;32.078;34.818;2023-01-29T04:44:07;4.57;;;4.18;;
23617;SDS011;18207;32.078;34.818;2023-01-29T04:46:50;4.43;;;3.88;;
23617;SDS011;18207;32.078;34.818;2023-01-29T04:49:33;5.90;;;4.40;;
23617;SDS011;18207;32.078;34.818;2023-01-29T04:52:14;5.03;;;4.53;;
23617;SDS011;18207;32.078;34.818;2023-01-29T04:55:06;4.97;;;4.47;;
23617;SDS011;18207;32.078;34.818;2023-01-29T04:57:49;4.90;;;4.38;;
23617;SDS011;18207;32.078;34.818;2023-01-29T05:00:31;5.50;;;4.00;;
23617;SDS011;18207;32.078;34.818;2023-01-29T05:03:06;4.95;;;3.88;;
23617;SDS011;18207;32.078;34.818;2023-01-29T05:05:40;4.72;;;4.22;;
23617;SDS011;18207;32.078;34.818;2023-01-29T05:08:15;5.97;;;4.30;;
23617;SDS011;18207;32.078;34.818;2023-01-29T05:10:51;4.82;;;4.32;;
23617;SDS011;18207;32.078;34.818;2023-01-29T05:13:25;4.68;;;4.15;;
23617;SDS011;18207;32.078;34.818;2023-01-29T05:16:00;4.68;;;4.28;;
23617;SDS011;18207;32.078;34.818;2023-01-29T05:18:36;4.97;;;4.20;;
23617;SDS011;18207;32.078;34.818;2023-01-29T05:21:07;4.50;;;4.05;;
23617;SDS011;18207;32.078;34.818;2023-01-29T05:23:37;4.40;;;4.00;;
23617;SDS011;18207;32.078;34.818;2023-01-29T05:26:27;4.50;;;4.10;;
23617;SDS011;18207;32.078;34.818;2023-01-29T05:29:14;5.50;;;4.00;;
23617;SDS011;18207;32.078;34.818;2023-01-29T05:31:43;4.20;;;3.83;;
23617;SDS011;18207;32.078;34.818;2023-01-29T05:34:14;4.53;;;4.10;;
23617;SDS011;18207;32.078;34.818;2023-01-29T05:36:44;4.03;;;3.58;;
23617;SDS011;18207;32.078;34.818;2023-01-29T05:39:14;4.47;;;4.07;;
23617;SDS011;18207;32.078;34.818;2023-01-29T05:41:47;5.70;;;4.20;;
23617;SDS011;18207;32.078;34.818;2023-01-29T05:44:17;4.50;;;3.97;;
23617;SDS011;18207;32.078;34.818;2023-01-29T05:46:48;4.60;;;4.18;;
23617;SDS011;18207;32.078;34.818;2023-01-29T05:49:19;6.68;;;4.28;;
23617;SDS011;18207;32.078;34.818;2023-01-29T05:51:49;4.63;;;4.13;;
23617;SDS011;18207;32.078;34.818;2023-01-29T05:54:19;5.25;;;4.63;;
23617;SDS011;18207;32.078;34.818;2023-01-29T05:56:51;4.50;;;4.07;;
23617;SDS011;18207;32.078;34.818;2023-01-29T05:59:22;4.93;;;4.30;;
23617;SDS011;18207;32.078;34.818;2023-01-29T06:01:51;4.63;;;4.13;;
23617;SDS011;18207;32.078;34.818;2023-01-29T06:04:22;5.65;;;4.25;;
23617;SDS011;18207;32.078;34.818;2023-01-29T06:06:52;5.72;;;4.25;;
23617;SDS011;18207;32.078;34.818;2023-01-29T06:09:28;7.78;;;4.32;;
23617;SDS011;18207;32.078;34.818;2023-01-29T06:12:00;5.15;;;3.97;;
23617;SDS011;18207;32.078;34.818;2023-01-29T06:14:32;4.90;;;4.10;;
23617;SDS011;18207;32.078;34.818;2023-01-29T06:17:02;4.63;;;4.03;;
23617;SDS011;18207;32.078;34.818;2023-01-29T06:19:32;5.00;;;4.15;;
23617;SDS011;18207;32.078;34.818;2023-01-29T06:22:02;6.32;;;4.45;;
23617;SDS011;18207;32.078;34.818;2023-01-29T06:24:32;5.03;;;4.45;;
23617;SDS011;18207;32.078;34.818;2023-01-29T06:27:04;4.75;;;4.32;;
23617;SDS011;18207;32.078;34.818;2023-01-29T06:29:34;6.30;;;4.15;;
23617;SDS011;18207;32.078;34.818;2023-01-29T06:32:05;4.90;;;4.10;;
23617;SDS011;18207;32.078;34.818;2023-01-29T06:34:35;4.80;;;4.07;;
23617;SDS011;18207;32.078;34.818;2023-01-29T06:37:05;5.10;;;4.60;;
23617;SDS011;18207;32.078;34.818;2023-01-29T06:39:36;4.97;;;4.47;;
23617;SDS011;18207;32.078;34.818;2023-01-29T06:42:07;5.60;;;4.43;;
23617;SDS011;18207;32.078;34.818;2023-01-29T06:44:37;5.10;;;4.20;;
23617;SDS011;18207;32.078;34.818;2023-01-29T06:47:08;3.92;;;3.53;;
23617;SDS011;18207;32.078;34.818;2023-01-29T06:49:38;3.97;;;3.58;;
23617;SDS011;18207;32.078;34.818;2023-01-29T06:52:08;3.95;;;3.53;;
23617;SDS011;18207;32.078;34.818;2023-01-29T06:54:38;4.20;;;3.65;;
23617;SDS011;18207;32.078;34.818;2023-01-29T06:57:10;3.58;;;3.17;;
23617;SDS011;18207;32.078;34.818;2023-01-29T06:59:40;4.88;;;3.58;;
23617;SDS011;18207;32.078;34.818;2023-01-29T07:02:13;3.60;;;3.08;;
23617;SDS011;18207;32.078;34.818;2023-01-29T07:04:44;3.47;;;3.10;;
23617;SDS011;18207;32.078;34.818;2023-01-29T07:07:14;4.10;;;3.22;;
23617;SDS011;18207;32.078;34.818;2023-01-29T07:09:44;4.28;;;3.03;;
23617;SDS011;18207;32.078;34.818;2023-01-29T07:12:17;3.28;;;2.97;;
23617;SDS011;18207;32.078;34.818;2023-01-29T07:14:47;2.90;;;2.65;;
23617;SDS011;18207;32.078;34.818;2023-01-29T07:17:18;3.58;;;3.03;;
23617;SDS011;18207;32.078;34.818;2023-01-29T07:19:47;3.95;;;2.90;;
23617;SDS011;18207;32.078;34.818;2023-01-29T07:22:17;3.22;;;2.67;;
23617;SDS011;18207;32.078;34.818;2023-01-29T07:24:47;3.08;;;2.75;;
23617;SDS011;18207;32.078;34.818;2023-01-29T07:27:20;2.97;;;2.70;;
23617;SDS011;18207;32.078;34.818;2023-01-29T07:29:50;3.53;;;2.90;;
23617;SDS011;18207;32.078;34.818;2023-01-29T07:32:20;3.70;;;2.65;;
23617;SDS011;18207;32.078;34.818;2023-01-29T07:34:50;2.65;;;2.45;;
23617;SDS011;18207;32.078;34.818;2023-01-29T07:37:21;2.95;;;2.40;;
23617;SDS011;18207;32.078;34.818;2023-01-29T07:39:51;2.88;;;2.50;;
23617;SDS011;18207;32.078;34.818;2023-01-29T07:42:23;3.10;;;2.70;;
23617;SDS011;18207;32.078;34.818;2023-01-29T07:44:53;4.25;;;2.20;;
23617;SDS011;18207;32.078;34.818;2023-01-29T07:47:23;2.28;;;2.08;;
23617;SDS011;18207;32.078;34.818;2023-01-29T07:49:54;1.92;;;1.83;;
23617;SDS011;18207;32.078;34.818;2023-01-29T07:52:24;2.70;;;1.77;;
23617;SDS011;18207;32.078;34.818;2023-01-29T07:54:55;1.88;;;1.67;;
23617;SDS011;18207;32.078;34.818;2023-01-29T07:57:27;1.58;;;1.48;;
23617;SDS011;18207;32.078;34.818;2023-01-29T07:59:57;2.03;;;1.60;;
23617;SDS011;18207;32.078;34.818;2023-01-29T08:02:27;1.50;;;1.10;;
23617;SDS011;18207;32.078;34.818;2023-01-29T08:04:57;0.88;;;0.88;;
23617;SDS011;18207;32.078;34.818;2023-01-29T08:07:28;1.58;;;1.20;;
23617;SDS011;18207;32.078;34.818;2023-01-29T08:09:58;1.63;;;1.50;;
23617;SDS011;18207;32.078;34.818;2023-01-29T08:12:30;2.53;;;1.50;;
23617;SDS011;18207;32.078;34.818;2023-01-29T08:15:00;2.28;;;1.80;;
23617;SDS011;18207;32.078;34.818;2023-01-29T08:17:31;1.92;;;1.45;;
23617;SDS011;18207;32.078;34.818;2023-01-29T08:20:28;1.55;;;1.23;;
23617;SDS011;18207;32.078;34.818;2023-01-29T08:22:59;1.70;;;1.60;;
23617;SDS011;18207;32.078;34.818;2023-01-29T08:25:30;1.80;;;1.65;;
23617;SDS011;18207;32.078;34.818;2023-01-29T08:28:04;1.75;;;1.65;;
23617;SDS011;18207;32.078;34.818;2023-01-29T08:30:35;2.88;;;1.58;;
23617;SDS011;18207;32.078;34.818;2023-01-29T08:33:06;1.50;;;1.40;;
23617;SDS011;18207;32.078;34.818;2023-01-29T08:35:36;1.70;;;1.60;;
23617;SDS011;18207;32.078;34.818;2023-01-29T08:38:07;1.70;;;1.60;;
23617;SDS011;18207;32.078;34.818;2023-01-29T08:40:38;3.33;;;1.60;;
23617;SDS011;18207;32.078;34.818;2023-01-29T08:43:11;1.40;;;1.30;;
23617;SDS011;18207;32.078;34.818;2023-01-29T08:45:42;1.98;;;1.40;;
23617;SDS011;18207;32.078;34.818;2023-01-29T08:48:12;1.98;;;1.55;;
23617;SDS011;18207;32.078;34.818;2023-01-29T08:50:42;1.60;;;1.50;;
23617;SDS011;18207;32.078;34.818;2023-01-29T08:53:13;1.80;;;1.60;;
23617;SDS011;18207;32.078;34.818;2023-01-29T08:55:45;1.88;;;1.48;;
23617;SDS011;18207;32.078;34.818;2023-01-29T08:58:17;1.50;;;1.40;;
23617;SDS011;18207;32.078;34.818;2023-01-29T09:00:47;1.50;;;1.40;;
23617;SDS011;18207;32.078;34.818;2023-01-29T09:03:18;1.40;;;1.30;;
23617;SDS011;18207;32.078;34.818;2023-01-29T09:05:48;1.83;;;1.35;;
23617;SDS011;18207;32.078;34.818;2023-01-29T09:08:18;1.70;;;1.27;;
23617;SDS011;18207;32.078;34.818;2023-01-29T09:10:48;2.15;;;1.20;;
23617;SDS011;18207;32.078;34.818;2023-01-29T09:13:20;1.20;;;1.10;;
23617;SDS011;18207;32.078;34.818;2023-01-29T09:15:50;1.40;;;1.30;;
23617;SDS011;18207;32.078;34.818;2023-01-29T09:18:21;1.33;;;1.23;;
23617;SDS011;18207;32.078;34.818;2023-01-29T09:20:52;1.05;;;1.02;;
23617;SDS011;18207;32.078;34.818;2023-01-29T09:23:22;1.95;;;1.52;;
23617;SDS011;18207;32.078;34.818;2023-01-29T09:25:52;2.00;;;1.05;;
23617;SDS011;18207;32.078;34.818;2023-01-29T09:28:24;1.00;;;0.95;;
23617;SDS011;18207;32.078;34.818;2023-01-29T09:30:55;1.20;;;1.10;;
23617;SDS011;18207;32.078;34.818;2023-01-29T09:33:29;1.48;;;1.08;;
23617;SDS011;18207;32.078;34.818;2023-01-29T09:36:01;1.63;;;1.10;;
23617;SDS011;18207;32.078;34.818;2023-01-29T09:38:31;1.20;;;1.10;;
23617;SDS011;18207;32.078;34.818;2023-01-29T09:41:04;1.25;;;0.98;;
23617;SDS011;18207;32.078;34.818;2023-01-29T09:43:51;1.08;;;1.00;;
23617;SDS011;18207;32.078;34.818;2023-01-29T09:46:29;1.42;;;1.00;;
23617;SDS011;18207;32.078;34.818;2023-01-29T09:49:10;1.25;;;0.75;;
23617;SDS011;18207;32.078;34.818;2023-01-29T09:51:49;0.73;;;0.73;;
23617;SDS011;18207;32.078;34.818;2023-01-29T09:54:26;0.95;;;0.57;;
23617;SDS011;18207;32.078;34.818;2023-01-29T09:57:03;0.65;;;0.65;;
23617;SDS011;18207;32.078;34.818;2023-01-29T09:59:43;0.77;;;0.60;;
23617;SDS011;18207;32.078;34.818;2023-01-29T10:02:17;0.80;;;0.80;;
23617;SDS011;18207;32.078;34.818;2023-01-29T10:05:21;0.60;;;0.43;;
23617;SDS011;18207;32.078;34.818;2023-01-29T10:08:15;0.40;;;0.40;;
23617;SDS011;18207;32.078;34.818;2023-01-29T10:11:11;1.65;;;0.75;;
23617;SDS011;18207;32.078;34.818;2023-01-29T10:13:58;0.68;;;0.50;;
23617;SDS011;18207;32.078;34.818;2023-01-29T10:16:46;0.60;;;0.55;;
23617;SDS011;18207;32.078;34.818;2023-01-29T10:22:50;0.52;;;0.40;;
23617;SDS011;18207;32.078;34.818;2023-01-29T10:25:32;0.50;;;0.50;;
23617;SDS011;18207;32.078;34.818;2023-01-29T10:28:14;0.82;;;0.52;;
23617;SDS011;18207;32.078;34.818;2023-01-29T10:30:48;1.02;;;0.68;;
23617;SDS011;18207;32.078;34.818;2023-01-29T10:33:26;0.40;;;0.40;;
23617;SDS011;18207;32.078;34.818;2023-01-29T10:36:25;1.50;;;0.63;;
23617;SDS011;18207;32.078;34.818;2023-01-29T10:39:04;2.40;;;0.65;;
23617;SDS011;18207;32.078;34.818;2023-01-29T10:41:51;0.73;;;0.60;;
23617;SDS011;18207;32.078;34.818;2023-01-29T10:44:36;1.30;;;1.05;;
23617;SDS011;18207;32.078;34.818;2023-01-29T10:51:07;0.32;;;0.32;;
23617;SDS011;18207;32.078;34.818;2023-01-29T10:53:56;1.17;;;0.50;;
23617;SDS011;18207;32.078;34.818;2023-01-29T10:56:50;1.15;;;0.63;;
23617;SDS011;18207;32.078;34.818;2023-01-29T10:59:41;0.63;;;0.60;;
23617;SDS011;18207;32.078;34.818;2023-01-29T11:02:27;1.05;;;0.85;;
23617;SDS011;18207;32.078;34.818;2023-01-29T11:04:57;0.65;;;0.65;;
23617;SDS011;18207;32.078;34.818;2023-01-29T11:07:29;0.90;;;0.85;;
23617;SDS011;18207;32.078;34.818;2023-01-29T11:10:02;1.25;;;0.77;;
23617;SDS011;18207;32.078;34.818;2023-01-29T11:12:42;1.63;;;0.52;;
23617;SDS011;18207;32.078;34.818;2023-01-29T11:15:15;1.02;;;0.60;;
23617;SDS011;18207;32.078;34.818;2023-01-29T11:18:02;2.15;;;0.70;;
23617;SDS011;18207;32.078;34.818;2023-01-29T11:20:36;0.90;;;0.57;;
23617;SDS011;18207;32.078;34.818;2023-01-29T11:23:17;0.50;;;0.50;;
23617;SDS011;18207;32.078;34.818;2023-01-29T11:25:55;0.43;;;0.43;;
23617;SDS011;18207;32.078;34.818;2023-01-29T11:28:34;0.95;;;0.60;;
23617;SDS011;18207;32.078;34.818;2023-01-29T11:34:00;0.70;;;0.47;;
23617;SDS011;18207;32.078;34.818;2023-01-29T11:36:35;0.70;;;0.40;;
23617;SDS011;18207;32.078;34.818;2023-01-29T11:39:16;0.90;;;0.60;;
23617;SDS011;18207;32.078;34.818;2023-01-29T11:41:51;2.53;;;0.60;;
23617;SDS011;18207;32.078;34.818;2023-01-29T11:44:29;0.40;;;0.40;;
23617;SDS011;18207;32.078;34.818;2023-01-29T11:47:15;0.75;;;0.47;;
23617;SDS011;18207;32.078;34.818;2023-01-29T11:49:51;0.55;;;0.55;;
23617;SDS011;18207;32.078;34.818;2023-01-29T11:52:24;1.45;;;0.90;;
23617;SDS011;18207;32.078;34.818;2023-01-29T11:55:11;1.05;;;0.50;;
23617;SDS011;18207;32.078;34.818;2023-01-29T11:57:48;0.55;;;0.47;;
23617;SDS011;18207;32.078;34.818;2023-01-29T12:00:25;0.85;;;0.43;;
23617;SDS011;18207;32.078;34.818;2023-01-29T12:03:00;0.57;;;0.45;;
23617;SDS011;18207;32.078;34.818;2023-01-29T12:05:40;0.73;;;0.60;;
23617;SDS011;18207;32.078;34.818;2023-01-29T12:08:22;0.50;;;0.50;;
23617;SDS011;18207;32.078;34.818;2023-01-29T12:10:55;0.88;;;0.77;;
23617;SDS011;18207;32.078;34.818;2023-01-29T12:13:38;0.82;;;0.70;;
23617;SDS011;18207;32.078;34.818;2023-01-29T12:16:13;0.95;;;0.50;;
23617;SDS011;18207;32.078;34.818;2023-01-29T12:18:52;0.90;;;0.70;;
23617;SDS011;18207;32.078;34.818;2023-01-29T12:21:34;1.00;;;0.93;;
23617;SDS011;18207;32.078;34.818;2023-01-29T12:24:21;0.90;;;0.80;;
23617;SDS011;18207;32.078;34.818;2023-01-29T12:27:06;1.55;;;0.80;;
23617;SDS011;18207;32.078;34.818;2023-01-29T12:29:47;0.80;;;0.70;;
23617;SDS011;18207;32.078;34.818;2023-01-29T12:32:26;1.70;;;0.80;;
23617;SDS011;18207;32.078;34.818;2023-01-29T12:35:09;0.55;;;0.50;;
23617;SDS011;18207;32.078;34.818;2023-01-29T12:37:50;2.00;;;0.80;;
23617;SDS011;18207;32.078;34.818;2023-01-29T12:40:29;0.75;;;0.70;;
23617;SDS011;18207;32.078;34.818;2023-01-29T12:43:12;1.10;;;0.90;;
23617;SDS011;18207;32.078;34.818;2023-01-29T12:45:46;1.10;;;1.00;;
23617;SDS011;18207;32.078;34.818;2023-01-29T12:48:24;0.90;;;0.80;;
23617;SDS011;18207;32.078;34.818;2023-01-29T12:51:02;2.58;;;1.13;;
23617;SDS011;18207;32.078;34.818;2023-01-29T12:53:37;1.05;;;0.80;;
23617;SDS011;18207;32.078;34.818;2023-01-29T12:56:17;0.80;;;0.80;;
23617;SDS011;18207;32.078;34.818;2023-01-29T12:59:00;0.65;;;0.65;;
23617;SDS011;18207;32.078;34.818;2023-01-29T13:01:45;1.58;;;1.10;;
23617;SDS011;18207;32.078;34.818;2023-01-29T13:04:24;0.65;;;0.60;;
23617;SDS011;18207;32.078;34.818;2023-01-29T13:07:09;1.08;;;0.98;;
23617;SDS011;18207;32.078;34.818;2023-01-29T13:09:47;0.98;;;0.90;;
23617;SDS011;18207;32.078;34.818;2023-01-29T13:12:22;1.13;;;0.90;;
23617;SDS011;18207;32.078;34.818;2023-01-29T13:14:56;0.70;;;0.65;;
23617;SDS011;18207;32.078;34.818;2023-01-29T13:17:32;0.80;;;0.80;;
23617;SDS011;18207;32.078;34.818;2023-01-29T13:20:10;1.02;;;0.80;;
23617;SDS011;18207;32.078;34.818;2023-01-29T13:22:47;2.22;;;1.05;;
23617;SDS011;18207;32.078;34.818;2023-01-29T13:25:22;1.05;;;1.00;;
23617;SDS011;18207;32.078;34.818;2023-01-29T13:27:53;0.73;;;0.73;;
23617;SDS011;18207;32.078;34.818;2023-01-29T13:30:29;0.80;;;0.80;;
23617;SDS011;18207;32.078;34.818;2023-01-29T13:33:03;2.15;;;0.90;;
23617;SDS011;18207;32.078;34.818;2023-01-29T13:35:39;0.82;;;0.82;;
23617;SDS011;18207;32.078;34.818;2023-01-29T13:38:20;1.23;;;0.80;;
23617;SDS011;18207;32.078;34.818;2023-01-29T13:40:57;0.88;;;0.82;;
23617;SDS011;18207;32.078;34.818;2023-01-29T13:43:33;1.52;;;0.93;;
23617;SDS011;18207;32.078;34.818;2023-01-29T13:46:09;1.02;;;0.90;;
23617;SDS011;18207;32.078;34.818;2023-01-29T13:48:47;2.30;;;1.10;;
23617;SDS011;18207;32.078;34.818;2023-01-29T13:51:25;1.67;;;1.25;;
23617;SDS011;18207;32.078;34.818;2023-01-29T13:54:05;2.85;;;1.15;;
23617;SDS011;18207;32.078;34.818;2023-01-29T13:56:46;1.27;;;0.95;;
23617;SDS011;18207;32.078;34.818;2023-01-29T14:02:25;1.45;;;1.27;;
23617;SDS011;18207;32.078;34.818;2023-01-29T14:08:35;1.88;;;1.15;;
23617;SDS011;18207;32.078;34.818;2023-01-29T14:11:27;1.30;;;1.20;;
23617;SDS011;18207;32.078;34.818;2023-01-29T14:14:06;1.42;;;1.33;;
23617;SDS011;18207;32.078;34.818;2023-01-29T14:17:18;1.42;;;1.30;;
23617;SDS011;18207;32.078;34.818;2023-01-29T14:20:00;1.40;;;1.30;;
23617;SDS011;18207;32.078;34.818;2023-01-29T14:22:50;1.40;;;1.20;;
23617;SDS011;18207;32.078;34.818;2023-01-29T14:25:27;1.52;;;1.40;;
23617;SDS011;18207;32.078;34.818;2023-01-29T14:28:01;1.55;;;1.35;;
23617;SDS011;18207;32.078;34.818;2023-01-29T14:30:44;1.50;;;1.40;;
23617;SDS011;18207;32.078;34.818;2023-01-29T14:33:22;1.40;;;1.30;;
23617;SDS011;18207;32.078;34.818;2023-01-29T14:36:08;1.40;;;1.30;;
23617;SDS011;18207;32.078;34.818;2023-01-29T14:38:45;1.70;;;1.60;;
23617;SDS011;18207;32.078;34.818;2023-01-29T14:41:21;2.45;;;1.40;;
23617;SDS011;18207;32.078;34.818;2023-01-29T14:50:48;1.63;;;1.40;;
23617;SDS011;18207;32.078;34.818;2023-01-29T14:56:32;1.60;;;1.50;;
23617;SDS011;18207;32.078;34.818;2023-01-29T14:59:11;1.67;;;1.58;;
23617;SDS011;18207;32.078;34.818;2023-01-29T15:01:50;1.63;;;1.52;;
23617;SDS011;18207;32.078;34.818;2023-01-29T15:04:24;1.70;;;1.60;;
23617;SDS011;18207;32.078;34.818;2023-01-29T15:07:00;2.08;;;1.50;;
23617;SDS011;18207;32.078;34.818;2023-01-29T15:09:44;1.95;;;1.70;;
23617;SDS011;18207;32.078;34.818;2023-01-29T15:12:31;2.15;;;1.58;;
23617;SDS011;18207;32.078;34.818;2023-01-29T15:15:12;2.50;;;1.80;;
23617;SDS011;18207;32.078;34.818;2023-01-29T15:17:51;1.70;;;1.60;;
23617;SDS011;18207;32.078;34.818;2023-01-29T15:20:30;2.00;;;1.80;;
23617;SDS011;18207;32.078;34.818;2023-01-29T15:23:03;1.90;;;1.80;;
23617;SDS011;18207;32.078;34.818;2023-01-29T15:25:56;1.80;;;1.70;;
23617;SDS011;18207;32.078;34.818;2023-01-29T15:28:30;2.85;;;1.90;;
23617;SDS011;18207;32.078;34.818;2023-01-29T15:31:03;2.05;;;1.83;;
23617;SDS011;18207;32.078;34.818;2023-01-29T15:33:40;2.20;;;1.85;;
23617;SDS011;18207;32.078;34.818;2023-01-29T15:36:16;2.10;;;1.90;;
23617;SDS011;18207;32.078;34.818;2023-01-29T15:39:06;2.33;;;1.73;;
23617;SDS011;18207;32.078;34.818;2023-01-29T15:41:47;2.10;;;1.80;;
23617;SDS011;18207;32.078;34.818;2023-01-29T15:44:19;2.15;;;1.75;;
23617;SDS011;18207;32.078;34.818;2023-01-29T15:46:51;2.15;;;1.80;;
23617;SDS011;18207;32.078;34.818;2023-01-29T15:49:30;2.28;;;1.50;;
23617;SDS011;18207;32.078;34.818;2023-01-29T15:52:06;1.58;;;1.48;;
23617;SDS011;18207;32.078;34.818;2023-01-29T15:54:46;1.80;;;1.60;;
23617;SDS011;18207;32.078;34.818;2023-01-29T15:57:22;1.65;;;1.55;;